Time;durP1;ratioP1;P1;durP2;ratioP2;P2;SDS_P1;SDS_P2;PMS_P1;PMS_P2;Temp;Humidity;BMP_temperature;BMP_pressure;BME280_temperature;BME280_humidity;BME280_pressure;Samples;Min_cycle;Max_cycle;Signal;HPM_P1;HPM_P2
2021/06/15 00:02:05;;;;;;;17.57;15.67;;;20.30;16.50;;;;;;5006677;28;20182;-85
2021/06/15 00:04:31;;;;;;;19.27;15.10;;;20.40;16.10;;;;;;5035566;28;20163;-83
2021/06/15 00:06:56;;;;;;;20.40;14.90;;;20.40;18.00;;;;;;5021428;28;20369;-82
2021/06/15 00:09:25;;;;;;;21.90;15.83;;;20.40;17.10;;;;;;5013662;28;20188;-83
2021/06/15 00:11:51;;;;;;;22.43;15.47;;;20.40;13.00;;;;;;5006183;28;20167;-83
2021/06/15 00:14:17;;;;;;;17.53;15.63;;;20.40;13.60;;;;;;5005109;28;20217;-84
2021/06/15 00:16:46;;;;;;;24.83;15.90;;;20.40;15.80;;;;;;5005981;28;20178;-83
2021/06/15 00:19:15;;;;;;;20.20;16.07;;;20.50;15.80;;;;;;5013897;28;20208;-82
2021/06/15 00:21:42;;;;;;;18.33;15.17;;;20.30;15.10;;;;;;5013020;28;20175;-82
2021/06/15 00:24:08;;;;;;;21.10;16.60;;;20.40;16.20;;;;;;5011805;28;20191;-83
2021/06/15 00:26:42;;;;;;;19.57;15.93;;;20.60;15.50;;;;;;5000628;28;20260;-82
2021/06/15 00:29:11;;;;;;;23.30;15.13;;;20.70;11.90;;;;;;4999437;28;20248;-82
2021/06/15 00:31:39;;;;;;;20.33;15.90;;;20.80;1.00;;;;;;5000759;28;20221;-83
2021/06/15 00:34:05;;;;;;;18.90;14.93;;;20.70;3.60;;;;;;5007329;28;20255;-84
2021/06/15 00:36:31;;;;;;;20.80;15.30;;;20.60;2.80;;;;;;5011297;28;20175;-81
2021/06/15 00:38:56;;;;;;;20.60;16.40;;;20.50;8.60;;;;;;5019555;28;20239;-81
2021/06/15 00:41:23;;;;;;;17.83;15.20;;;20.60;7.90;;;;;;5004477;28;20205;-81
2021/06/15 00:43:48;;;;;;;17.90;16.00;;;20.60;4.20;;;;;;4998513;28;20242;-83
2021/06/15 00:46:15;;;;;;;19.60;15.83;;;20.80;5.00;;;;;;4999045;28;20145;-79
2021/06/15 00:48:45;;;;;;;18.53;15.87;;;20.80;1.40;;;;;;4995688;28;20641;-83
2021/06/15 00:51:14;;;;;;;22.57;15.83;;;20.90;1.00;;;;;;4983066;28;20212;-83
2021/06/15 00:53:40;;;;;;;19.87;14.63;;;21.00;1.00;;;;;;4979001;28;20220;-84
2021/06/15 00:56:06;;;;;;;19.90;14.93;;;20.90;1.00;;;;;;4978833;28;20211;-84
2021/06/15 00:58:56;;;;;;;17.63;14.23;;;20.90;1.00;;;;;;4980358;28;20282;-84
2021/06/15 01:01:23;;;;;;;19.00;15.30;;;20.90;1.00;;;;;;4996428;28;20169;-81
2021/06/15 01:03:49;;;;;;;18.47;14.77;;;20.90;1.00;;;;;;4999965;28;20174;-80
2021/06/15 01:06:46;;;;;;;20.20;15.00;;;21.00;1.00;;;;;;4985632;28;20208;-81
2021/06/15 01:09:32;;;;;;;20.23;15.47;;;21.10;1.00;;;;;;4981149;28;20184;-82
2021/06/15 01:12:18;;;;;;;18.43;15.43;;;21.00;1.00;;;;;;4995973;28;20177;-83
2021/06/15 01:15:08;;;;;;;21.67;17.07;;;20.80;1.00;;;;;;4991549;28;20216;-82
2021/06/15 01:17:40;;;;;;;20.30;16.57;;;20.70;1.00;;;;;;4994791;28;20177;-82
2021/06/15 01:20:15;;;;;;;22.00;17.13;;;20.50;1.00;;;;;;4998516;28;20223;-83
2021/06/15 01:22:43;;;;;;;22.93;16.80;;;20.40;5.40;;;;;;4997367;28;20163;-83
2021/06/15 01:25:47;;;;;;;22.10;17.83;;;20.30;12.30;;;;;;4991316;28;20216;-83
2021/06/15 01:28:28;;;;;;;21.53;17.83;;;20.30;10.80;;;;;;4990899;28;20179;-82
2021/06/15 01:31:19;;;;;;;24.13;17.80;;;20.30;10.90;;;;;;5007298;28;20278;-84
2021/06/15 01:34:13;;;;;;;21.77;18.33;;;20.30;12.30;;;;;;4979147;28;20157;-82
2021/06/15 01:37:17;;;;;;;23.27;20.07;;;20.10;13.80;;;;;;4977789;28;20176;-82
2021/06/15 01:40:14;;;;;;;24.03;20.30;;;20.10;15.60;;;;;;4978691;28;20217;-82
2021/06/15 01:42:44;;;;;;;24.00;20.93;;;20.10;19.40;;;;;;4976276;28;20199;-83
2021/06/15 01:45:42;;;;;;;24.90;19.23;;;19.90;23.40;;;;;;4976997;28;20534;-83
2021/06/15 01:48:14;;;;;;;22.83;19.77;;;19.80;24.90;;;;;;4976089;28;20172;-84
2021/06/15 01:50:42;;;;;;;27.73;21.40;;;19.80;27.30;;;;;;4976654;28;20187;-82
2021/06/15 01:53:16;;;;;;;26.03;21.90;;;19.70;29.00;;;;;;4976829;28;20172;-83
2021/06/15 01:55:47;;;;;;;27.23;21.47;;;19.60;32.50;;;;;;4976740;28;20636;-84
2021/06/15 01:58:13;;;;;;;27.23;22.70;;;19.50;34.70;;;;;;4992954;28;20175;-82
2021/06/15 02:00:40;;;;;;;26.07;21.73;;;19.60;34.20;;;;;;4977659;28;20175;-83
2021/06/15 02:03:06;;;;;;;27.83;22.23;;;19.60;35.40;;;;;;4976876;28;20250;-84
2021/06/15 02:05:46;;;;;;;27.43;24.00;;;19.50;38.20;;;;;;4976235;28;20171;-83
2021/06/15 02:08:21;;;;;;;35.07;24.37;;;19.40;39.60;;;;;;4975426;28;20195;-82
2021/06/15 02:10:51;;;;;;;29.27;24.03;;;19.30;42.00;;;;;;4959658;28;20274;-82
2021/06/15 02:13:18;;;;;;;29.73;25.73;;;19.30;44.70;;;;;;4976349;28;20174;-82
2021/06/15 02:15:44;;;;;;;33.77;26.97;;;19.20;46.40;;;;;;4975434;28;20180;-82
2021/06/15 02:18:10;;;;;;;28.40;25.40;;;19.10;50.10;;;;;;4976539;28;20236;-83
2021/06/15 02:20:42;;;;;;;29.10;25.77;;;19.10;52.20;;;;;;4977842;28;20773;-82
2021/06/15 02:23:11;;;;;;;30.70;27.40;;;19.20;52.20;;;;;;4977272;28;20187;-81
2021/06/15 02:25:39;;;;;;;33.40;27.30;;;19.20;52.30;;;;;;4978229;28;20180;-81
2021/06/15 02:28:05;;;;;;;34.20;27.07;;;19.20;52.70;;;;;;4977592;28;20654;-85
2021/06/15 02:30:31;;;;;;;32.27;27.93;;;19.20;52.60;;;;;;4974653;28;20180;-82
2021/06/15 02:33:10;;;;;;;33.07;28.07;;;19.20;55.40;;;;;;4976223;28;20639;-83
2021/06/15 02:35:42;;;;;;;31.97;27.47;;;19.10;57.10;;;;;;4975623;28;20200;-84
2021/06/15 02:38:12;;;;;;;36.37;29.53;;;19.10;57.50;;;;;;4977477;28;20360;-82
2021/06/15 02:40:38;;;;;;;34.83;28.13;;;19.10;57.80;;;;;;4990932;28;20214;-85
2021/06/15 02:43:07;;;;;;;34.43;28.13;;;19.00;58.90;;;;;;5005514;28;20198;-84
2021/06/15 02:45:34;;;;;;;30.03;26.83;;;19.00;60.10;;;;;;5003315;28;20167;-80
2021/06/15 02:48:05;;;;;;;33.60;29.40;;;19.00;61.90;;;;;;5006831;28;20164;-81
2021/06/15 02:50:31;;;;;;;36.23;29.93;;;18.80;64.50;;;;;;5005546;28;20179;-80
2021/06/15 02:53:06;;;;;;;33.80;29.67;;;18.90;67.70;;;;;;4998095;28;20243;-82
2021/06/15 02:55:39;;;;;;;34.87;29.93;;;18.80;69.10;;;;;;5004721;28;20170;-82
2021/06/15 02:58:07;;;;;;;40.13;30.87;;;18.80;69.10;;;;;;4994963;28;20183;-84
2021/06/15 03:00:33;;;;;;;31.53;27.83;;;18.80;70.80;;;;;;4995579;28;20302;-81
2021/06/15 03:02:59;;;;;;;34.63;28.53;;;18.70;71.30;;;;;;4995946;28;20170;-82
2021/06/15 03:05:25;;;;;;;36.90;30.10;;;18.70;73.50;;;;;;4996284;28;20171;-84
2021/06/15 03:07:52;;;;;;;36.43;29.83;;;18.70;74.10;;;;;;4994623;28;20171;-83
2021/06/15 03:10:19;;;;;;;41.50;30.30;;;18.80;74.70;;;;;;4994324;28;20274;-83
2021/06/15 03:12:45;;;;;;;35.50;29.50;;;18.70;75.00;;;;;;4997946;28;20165;-81
2021/06/15 03:15:14;;;;;;;36.83;29.90;;;18.80;73.40;;;;;;5000725;28;20678;-84
2021/06/15 03:17:52;;;;;;;36.77;31.17;;;18.70;73.90;;;;;;5012203;28;20155;-80
2021/06/15 03:20:23;;;;;;;36.90;30.77;;;18.60;76.10;;;;;;5010979;28;20210;-81
2021/06/15 03:23:21;;;;;;;34.27;30.23;;;18.60;76.80;;;;;;5002815;28;20535;-81
2021/06/15 03:25:52;;;;;;;37.33;30.80;;;18.50;79.60;;;;;;5000657;28;20171;-82
2021/06/15 03:28:25;;;;;;;39.27;31.40;;;18.50;81.20;;;;;;4997531;28;20621;-80
2021/06/15 03:30:52;;;;;;;33.40;29.80;;;18.40;83.00;;;;;;4996224;28;20175;-84
2021/06/15 03:33:19;;;;;;;36.63;30.77;;;18.50;81.60;;;;;;4996785;28;20175;-81
2021/06/15 03:35:49;;;;;;;37.40;31.43;;;18.50;83.00;;;;;;4995673;28;20155;-81
2021/06/15 03:38:16;;;;;;;36.17;29.90;;;18.40;85.10;;;;;;5005411;28;20190;-81
2021/06/15 03:40:49;;;;;;;36.50;31.37;;;18.50;85.10;;;;;;4998994;28;20206;-82
2021/06/15 03:43:18;;;;;;;36.73;31.77;;;18.40;85.10;;;;;;4980245;28;20168;-80
2021/06/15 03:46:14;;;;;;;44.27;31.00;;;18.40;85.60;;;;;;4999004;28;20171;-83
2021/06/15 03:48:51;;;;;;;37.13;31.43;;;18.30;87.60;;;;;;4969827;28;20187;-81
2021/06/15 03:51:22;;;;;;;40.60;30.90;;;18.40;88.70;;;;;;4976384;28;20172;-82
2021/06/15 03:53:50;;;;;;;34.20;27.97;;;18.40;90.20;;;;;;4975670;28;20201;-82
2021/06/15 03:56:17;;;;;;;33.17;28.87;;;18.40;89.40;;;;;;4977545;28;20160;-81
2021/06/15 03:58:44;;;;;;;33.70;28.97;;;18.60;88.90;;;;;;4977422;28;20557;-82
2021/06/15 04:01:14;;;;;;;34.10;28.40;;;18.50;88.70;;;;;;4987406;28;20151;-80
2021/06/15 04:03:40;;;;;;;29.87;26.63;;;18.50;89.10;;;;;;4988896;28;20196;-81
2021/06/15 04:06:08;;;;;;;34.67;27.67;;;18.50;90.50;;;;;;4978011;28;20172;-83
2021/06/15 04:08:37;;;;;;;32.97;28.37;;;18.50;90.40;;;;;;4992338;28;20172;-82
2021/06/15 04:11:09;;;;;;;31.37;26.43;;;18.50;90.70;;;;;;4980286;28;20629;-82
2021/06/15 04:13:41;;;;;;;31.17;26.10;;;18.50;90.60;;;;;;4984780;28;20167;-83
2021/06/15 04:16:10;;;;;;;32.30;26.37;;;18.50;91.00;;;;;;4982100;28;20198;-83
2021/06/15 04:18:37;;;;;;;31.10;26.60;;;18.50;91.30;;;;;;4981815;28;20199;-83
2021/06/15 04:21:06;;;;;;;31.40;26.63;;;18.50;90.90;;;;;;4968089;28;20184;-82
2021/06/15 04:23:44;;;;;;;30.90;25.97;;;18.60;91.20;;;;;;4988089;28;20168;-80
2021/06/15 04:26:12;;;;;;;30.10;25.73;;;18.70;90.80;;;;;;4994178;28;20809;-82
2021/06/15 04:28:39;;;;;;;30.93;26.80;;;18.60;90.60;;;;;;4999317;28;20164;-80
2021/06/15 04:31:06;;;;;;;30.23;26.60;;;18.70;90.70;;;;;;4993865;28;20164;-82
2021/06/15 04:33:32;;;;;;;33.50;27.50;;;18.70;90.10;;;;;;4984653;28;20240;-83
2021/06/15 04:36:02;;;;;;;34.60;26.87;;;18.80;89.80;;;;;;4981038;28;20584;-83
2021/06/15 04:38:57;;;;;;;30.10;26.83;;;18.70;90.10;;;;;;4980148;28;20199;-81
2021/06/15 04:41:34;;;;;;;33.37;26.00;;;18.80;90.10;;;;;;4995362;28;20230;-82
2021/06/15 04:44:06;;;;;;;30.63;26.40;;;18.80;90.80;;;;;;4996763;28;20167;-80
2021/06/15 04:46:46;;;;;;;32.67;27.47;;;18.70;90.80;;;;;;4996307;28;20180;-82
2021/06/15 04:49:22;;;;;;;34.77;25.07;;;18.60;91.50;;;;;;4997995;28;20171;-85
2021/06/15 04:51:52;;;;;;;32.57;25.37;;;18.50;92.60;;;;;;5000828;28;20219;-82
2021/06/15 04:54:21;;;;;;;35.40;27.43;;;18.50;93.20;;;;;;5033500;28;20251;-81
2021/06/15 04:56:50;;;;;;;35.40;27.17;;;18.40;93.80;;;;;;5017907;28;20203;-82
2021/06/15 04:59:21;;;;;;;30.53;27.27;;;18.50;93.80;;;;;;4998958;28;20687;-83
2021/06/15 05:01:48;;;;;;;33.10;26.37;;;18.50;93.60;;;;;;4996919;28;20174;-82
2021/06/15 05:04:14;;;;;;;29.10;25.33;;;18.50;93.40;;;;;;4998361;28;20638;-82
2021/06/15 05:06:40;;;;;;;30.97;26.17;;;18.60;93.20;;;;;;5013086;28;20179;-83
2021/06/15 05:09:08;;;;;;;32.17;26.07;;;18.50;93.00;;;;;;5013922;28;20174;-82
2021/06/15 05:11:37;;;;;;;29.93;24.70;;;18.60;93.20;;;;;;5019235;28;20171;-83
2021/06/15 05:14:06;;;;;;;27.37;24.33;;;18.50;92.60;;;;;;5018040;28;20178;-82
2021/06/15 05:16:33;;;;;;;28.57;24.80;;;18.60;92.50;;;;;;5013933;28;20176;-80
2021/06/15 05:19:01;;;;;;;30.00;24.40;;;18.60;92.20;;;;;;5012887;28;20218;-83
2021/06/15 05:21:58;;;;;;;26.47;23.70;;;18.70;91.70;;;;;;5004231;28;20236;-82
2021/06/15 05:24:31;;;;;;;28.90;23.57;;;18.60;92.00;;;;;;5002495;28;20174;-82
2021/06/15 05:26:58;;;;;;;29.13;23.40;;;18.60;91.60;;;;;;5001083;28;20171;-84
2021/06/15 05:29:24;;;;;;;27.97;24.97;;;18.70;91.60;;;;;;5003106;28;20160;-84
2021/06/15 05:31:49;;;;;;;27.10;23.60;;;18.80;90.90;;;;;;5001877;28;20179;-84
2021/06/15 05:34:15;;;;;;;27.60;23.40;;;18.70;90.80;;;;;;5001159;28;20179;-85
2021/06/15 05:36:41;;;;;;;25.33;21.40;;;18.60;91.00;;;;;;4981511;28;20187;-76
2021/06/15 05:39:06;;;;;;;23.63;20.90;;;18.60;91.60;;;;;;4996666;28;20206;-76
2021/06/15 05:41:33;;;;;;;24.23;21.13;;;18.80;92.10;;;;;;4978743;28;20238;-75
2021/06/15 05:43:58;;;;;;;23.03;19.73;;;19.00;89.60;;;;;;4976998;28;20271;-72
2021/06/15 05:46:24;;;;;;;25.40;21.00;;;19.30;86.70;;;;;;4984798;28;20218;-69
2021/06/15 05:48:49;;;;;;;24.23;17.67;;;19.50;80.80;;;;;;4994706;28;20187;-70
2021/06/15 05:51:15;;;;;;;23.40;18.77;;;20.00;75.10;;;;;;4996158;28;20187;-72
2021/06/15 05:53:41;;;;;;;22.03;18.20;;;20.10;60.90;;;;;;5009097;28;20225;-76
2021/06/15 05:56:06;;;;;;;20.73;18.53;;;20.30;55.90;;;;;;4993547;28;20189;-75
2021/06/15 05:58:32;;;;;;;23.27;18.73;;;20.60;48.40;;;;;;4993608;28;20266;-76
2021/06/15 06:00:58;;;;;;;23.30;19.40;;;20.50;47.70;;;;;;4994223;28;20631;-71
2021/06/15 06:03:32;;;;;;;20.47;18.37;;;20.60;42.40;;;;;;4994016;28;20175;-71
2021/06/15 06:08:42;;;;;;;22.13;18.90;;;20.70;41.60;;;;;;4993882;28;20258;-70
2021/06/15 06:11:08;;;;;;;36.40;30.30;;;20.70;41.80;;;;;;4994216;28;20624;-70
2021/06/15 06:13:35;;;;;;;21.03;19.03;;;20.90;34.90;;;;;;4992740;28;20202;-71
2021/06/15 06:16:05;;;;;;;24.87;18.47;;;21.10;26.10;;;;;;4994254;28;20251;-70
2021/06/15 06:18:33;;;;;;;25.57;16.57;;;20.90;30.20;;;;;;4993459;28;20179;-71
2021/06/15 06:20:58;;;;;;;23.77;18.73;;;21.10;28.70;;;;;;4993820;28;20186;-71
2021/06/15 06:23:28;;;;;;;25.53;17.27;;;21.30;19.80;;;;;;4993126;28;20256;-70
2021/06/15 06:25:53;;;;;;;18.33;16.33;;;21.20;20.50;;;;;;4993253;28;20545;-71
2021/06/15 06:28:19;;;;;;;18.93;16.47;;;21.30;16.30;;;;;;4993883;28;20617;-70
2021/06/15 06:30:44;;;;;;;19.20;15.57;;;21.50;11.70;;;;;;4993802;28;20184;-70
2021/06/15 06:33:10;;;;;;;18.57;16.30;;;21.60;7.30;;;;;;5001303;28;20173;-82
2021/06/15 06:35:36;;;;;;;22.40;17.60;;;21.70;1.00;;;;;;5012921;28;20186;-82
2021/06/15 06:38:03;;;;;;;18.97;16.90;;;21.30;10.90;;;;;;5023629;28;20222;-82
2021/06/15 06:40:29;;;;;;;19.87;17.33;;;21.10;17.10;;;;;;5007649;28;20223;-83
2021/06/15 06:42:55;;;;;;;20.47;17.50;;;21.00;22.10;;;;;;4998491;28;20318;-83
2021/06/15 06:45:21;;;;;;;25.10;18.00;;;20.90;28.80;;;;;;5000387;28;20207;-81
2021/06/15 06:47:47;;;;;;;23.30;17.37;;;20.60;33.60;;;;;;4997839;28;20183;-82
2021/06/15 06:50:13;;;;;;;20.20;18.20;;;20.30;42.10;;;;;;4999277;28;20297;-82
2021/06/15 06:52:38;;;;;;;24.07;18.87;;;20.10;47.10;;;;;;4998093;28;20248;-81
2021/06/15 06:55:05;;;;;;;23.50;18.37;;;20.00;51.80;;;;;;4998242;28;20179;-80
2021/06/15 06:57:31;;;;;;;23.90;19.03;;;20.00;53.80;;;;;;4997947;28;20187;-82
2021/06/15 06:59:57;;;;;;;21.87;19.40;;;20.10;52.60;;;;;;4995948;28;20221;-81
2021/06/15 07:02:22;;;;;;;23.10;19.23;;;20.30;51.80;;;;;;4996974;28;20249;-81
2021/06/15 07:04:48;;;;;;;24.50;19.30;;;20.20;50.20;;;;;;4999899;28;20639;-83
2021/06/15 07:07:14;;;;;;;24.37;18.73;;;20.20;52.80;;;;;;4999604;28;20179;-82
2021/06/15 07:09:40;;;;;;;27.63;20.00;;;20.30;50.00;;;;;;5005514;28;20175;-79
2021/06/15 07:12:06;;;;;;;26.87;19.53;;;20.50;49.70;;;;;;5003279;28;20211;-78
2021/06/15 07:14:32;;;;;;;26.83;19.47;;;20.50;49.80;;;;;;5021829;28;20233;-79
2021/06/15 07:16:58;;;;;;;22.67;19.10;;;20.70;43.60;;;;;;5026833;28;20551;-82
2021/06/15 07:19:25;;;;;;;23.37;18.63;;;20.50;40.00;;;;;;5020859;28;20678;-84
2021/06/15 07:21:51;;;;;;;24.40;18.60;;;20.60;41.40;;;;;;5007225;28;20187;-81
2021/06/15 07:24:17;;;;;;;21.50;17.37;;;20.60;40.30;;;;;;5002783;28;20164;-83
2021/06/15 07:26:42;;;;;;;21.40;16.57;;;20.70;38.10;;;;;;5002988;28;20241;-82
2021/06/15 07:29:11;;;;;;;19.57;16.57;;;20.70;36.20;;;;;;5016318;28;20184;-84
2021/06/15 07:31:37;;;;;;;20.40;16.43;;;20.70;27.70;;;;;;5021191;28;20174;-82
2021/06/15 07:34:06;;;;;;;17.93;15.87;;;20.80;28.70;;;;;;5019406;28;20181;-84
2021/06/15 07:36:35;;;;;;;17.60;14.97;;;21.00;31.50;;;;;;5017318;28;20187;-81
2021/06/15 07:39:01;;;;;;;20.40;15.97;;;21.00;24.10;;;;;;5015604;28;20214;-83
2021/06/15 07:41:26;;;;;;;20.30;15.13;;;21.10;26.20;;;;;;5004754;28;20266;-83
2021/06/15 07:43:52;;;;;;;20.23;14.30;;;21.10;11.90;;;;;;4987274;28;20185;-82
2021/06/15 07:46:18;;;;;;;17.60;14.13;;;21.10;12.20;;;;;;5016414;28;20183;-81
2021/06/15 07:48:44;;;;;;;17.80;13.30;;;21.10;19.80;;;;;;5028368;28;20173;-81
2021/06/15 07:51:09;;;;;;;20.07;12.70;;;21.20;10.00;;;;;;5028720;28;20190;-83
2021/06/15 07:53:35;;;;;;;18.97;13.23;;;21.30;4.80;;;;;;5031548;28;20176;-82
2021/06/15 07:56:01;;;;;;;16.87;11.43;;;21.50;3.50;;;;;;5030498;28;20169;-82
2021/06/15 07:58:26;;;;;;;15.27;11.30;;;21.50;1.00;;;;;;5027281;28;20194;-81
2021/06/15 08:00:52;;;;;;;14.00;9.23;;;21.50;1.00;;;;;;5022273;28;20199;-82
2021/06/15 08:03:18;;;;;;;15.90;10.07;;;21.50;1.00;;;;;;5016113;28;20195;-84
2021/06/15 08:05:43;;;;;;;15.30;10.13;;;21.50;1.00;;;;;;5024112;28;20233;-84
2021/06/15 08:08:12;;;;;;;11.57;9.73;;;21.70;1.00;;;;;;5031938;28;20212;-82
2021/06/15 08:10:38;;;;;;;17.73;8.53;;;21.60;1.00;;;;;;5028894;28;20201;-84
2021/06/15 08:13:07;;;;;;;13.60;7.40;;;21.90;1.00;;;;;;5020979;28;20184;-84
2021/06/15 08:15:33;;;;;;;12.60;6.20;;;22.00;1.00;;;;;;5022626;28;20176;-84
2021/06/15 08:17:59;;;;;;;10.27;7.50;;;22.00;1.00;;;;;;5025122;28;20191;-81
2021/06/15 08:20:27;;;;;;;8.70;6.80;;;22.10;1.00;;;;;;5023080;28;20287;-83
2021/06/15 08:22:54;;;;;;;9.27;6.90;;;22.10;1.00;;;;;;5025968;28;20165;-82
2021/06/15 08:25:20;;;;;;;12.80;6.83;;;22.00;1.00;;;;;;5025359;28;20266;-82
2021/06/15 08:27:46;;;;;;;11.43;6.77;;;22.00;1.00;;;;;;5028354;28;20176;-82
2021/06/15 08:30:13;;;;;;;8.10;6.53;;;22.10;1.00;;;;;;5034234;28;20180;-83
2021/06/15 08:32:41;;;;;;;12.53;6.80;;;22.30;1.00;;;;;;5027549;28;20408;-82
2021/06/15 08:35:07;;;;;;;13.33;7.70;;;22.40;1.00;;;;;;5015518;28;20211;-81
2021/06/15 08:37:40;;;;;;;9.37;7.17;;;22.30;1.00;;;;;;5001799;28;20253;-83
2021/06/15 08:40:07;;;;;;;14.13;7.60;;;22.30;1.00;;;;;;4999804;28;20242;-81
2021/06/15 08:42:37;;;;;;;10.47;6.93;;;22.60;1.00;;;;;;4990044;28;20190;-82
2021/06/15 08:45:08;;;;;;;8.60;7.03;;;22.80;1.00;;;;;;4994532;28;20179;-81
2021/06/15 08:47:38;;;;;;;9.17;5.90;;;22.70;1.00;;;;;;5001971;28;20186;-80
2021/06/15 08:50:08;;;;;;;8.07;6.83;;;22.60;1.00;;;;;;5006155;28;20177;-82
2021/06/15 08:52:36;;;;;;;11.73;6.50;;;22.30;1.00;;;;;;4991559;28;20237;-83
2021/06/15 08:55:03;;;;;;;9.90;6.60;;;22.30;1.00;;;;;;5006086;28;20162;-84
2021/06/15 08:57:33;;;;;;;11.83;6.63;;;22.30;1.00;;;;;;5005354;28;20253;-84
2021/06/15 09:00:01;;;;;;;9.77;6.43;;;22.60;1.00;;;;;;5006597;28;20273;-82
2021/06/15 09:02:28;;;;;;;12.40;6.53;;;22.80;1.00;;;;;;4999326;28;20174;-83
2021/06/15 09:04:55;;;;;;;9.43;6.70;;;22.60;1.00;;;;;;4999678;28;20572;-84
2021/06/15 09:07:21;;;;;;;10.13;6.63;;;22.60;1.00;;;;;;5000599;28;20659;-82
2021/06/15 09:09:48;;;;;;;8.30;6.67;;;22.50;1.00;;;;;;5007071;28;20182;-83
2021/06/15 09:12:16;;;;;;;10.70;6.80;;;22.60;1.00;;;;;;5004593;28;20174;-81
2021/06/15 09:14:51;;;;;;;13.00;5.83;;;22.80;1.00;;;;;;5001803;28;20550;-80
2021/06/15 09:17:27;;;;;;;10.33;5.93;;;22.90;1.00;;;;;;4980698;28;20181;-82
2021/06/15 09:19:53;;;;;;;10.10;5.93;;;23.00;1.00;;;;;;4991573;28;20642;-82
2021/06/15 09:22:32;;;;;;;9.80;4.70;;;23.20;1.00;;;;;;4984667;28;20171;-81
2021/06/15 09:24:59;;;;;;;7.10;5.00;;;23.30;1.00;;;;;;4986323;28;20189;-81
2021/06/15 09:27:29;;;;;;;7.13;5.60;;;23.00;1.00;;;;;;4992112;28;20167;-83
2021/06/15 09:29:57;;;;;;;10.43;5.37;;;23.00;1.00;;;;;;4989077;28;20176;-83
2021/06/15 09:32:23;;;;;;;8.00;5.17;;;23.10;1.00;;;;;;4991918;28;20183;-82
2021/06/15 09:35:08;;;;;;;11.43;5.10;;;23.00;1.00;;;;;;4998667;28;20669;-82
2021/06/15 09:37:36;;;;;;;10.17;5.20;;;23.20;1.00;;;;;;4995619;28;20175;-81
2021/06/15 09:40:24;;;;;;;8.47;5.53;;;23.30;1.00;;;;;;4995072;28;20633;-82
2021/06/15 09:43:11;;;;;;;8.10;5.73;;;23.40;1.00;;;;;;4999593;28;20191;-81
2021/06/15 09:45:41;;;;;;;7.20;4.43;;;23.40;1.00;;;;;;4988740;28;20175;-82
2021/06/15 09:48:23;;;;;;;8.60;4.50;;;23.50;1.00;;;;;;4995955;28;20262;-82
2021/06/15 09:50:57;;;;;;;7.87;4.60;;;23.60;1.00;;;;;;4987163;28;20202;-83
2021/06/15 09:53:29;;;;;;;6.63;4.30;;;23.70;1.00;;;;;;5000449;28;20241;-83
2021/06/15 09:56:01;;;;;;;7.80;4.40;;;23.80;1.00;;;;;;4985098;28;20180;-83
2021/06/15 09:58:50;;;;;;;6.80;4.60;;;23.90;1.00;;;;;;4991890;28;20294;-82
2021/06/15 10:01:34;;;;;;;6.37;4.50;;;23.90;1.00;;;;;;4989242;28;20167;-81
2021/06/15 10:04:19;;;;;;;7.60;4.33;;;23.70;1.00;;;;;;4990269;28;20539;-81
2021/06/15 10:06:50;;;;;;;8.87;4.30;;;23.70;1.00;;;;;;4999286;28;20182;-81
2021/06/15 10:09:35;;;;;;;7.77;3.47;;;23.80;1.00;;;;;;5004037;28;20191;-84
2021/06/15 10:12:03;;;;;;;7.30;3.57;;;23.80;1.00;;;;;;5036723;28;20164;-80
2021/06/15 10:14:29;;;;;;;6.63;3.50;;;24.10;1.00;;;;;;5036298;28;20184;-81
2021/06/15 10:16:56;;;;;;;6.97;3.20;;;24.20;99.90;;;;;;5033169;28;20261;-82
2021/06/15 10:19:23;;;;;;;5.00;2.80;;;24.20;99.90;;;;;;5032457;28;20637;-83
2021/06/15 10:21:49;;;;;;;3.87;2.73;;;24.00;99.90;;;;;;4992373;28;20219;-80
2021/06/15 10:24:23;;;;;;;6.77;3.10;;;24.10;99.90;;;;;;5019590;28;20173;-82
2021/06/15 10:26:52;;;;;;;5.03;2.70;;;24.10;99.90;;;;;;5022258;28;20178;-82
2021/06/15 10:29:18;;;;;;;5.00;2.20;;;24.40;1.00;;;;;;5020239;28;20174;-82
2021/06/15 10:31:49;;;;;;;6.27;2.30;;;24.10;1.00;;;;;;5022058;28;20326;-82
2021/06/15 10:34:27;;;;;;;4.87;3.47;;;24.10;1.00;;;;;;5021855;28;20169;-81
2021/06/15 10:36:53;;;;;;;6.00;2.70;;;24.40;99.90;;;;;;5023403;28;20218;-81
2021/06/15 10:39:40;;;;;;;5.40;2.50;;;24.60;1.00;;;;;;5009988;28;20575;-81
2021/06/15 10:42:14;;;;;;;6.23;3.23;;;24.60;1.00;;;;;;5018074;28;20220;-82
2021/06/15 10:44:41;;;;;;;6.67;2.50;;;24.70;99.90;;;;;;5007967;28;20167;-81
2021/06/15 10:47:11;;;;;;;13.10;3.07;;;24.30;99.90;;;;;;5018444;28;20168;-83
2021/06/15 10:50:01;;;;;;;8.23;2.60;;;24.40;1.00;;;;;;5031602;28;20177;-81
2021/06/15 10:52:59;;;;;;;11.03;4.00;;;24.40;99.90;;;;;;5030782;28;20161;-82
2021/06/15 10:55:48;;;;;;;7.23;2.10;;;24.50;1.00;;;;;;5007163;28;20272;-84
2021/06/15 10:58:32;;;;;;;4.87;2.20;;;24.60;1.00;;;;;;5011994;28;20165;-83
2021/06/15 11:01:20;;;;;;;3.97;2.10;;;24.50;99.90;;;;;;5006322;28;20201;-82
2021/06/15 11:03:59;;;;;;;7.23;2.40;;;24.60;99.90;;;;;;5003536;28;20177;-82
2021/06/15 11:06:43;;;;;;;11.43;2.50;;;24.80;15.50;;;;;;4998742;28;20195;-84
2021/06/15 11:09:15;;;;;;;9.00;2.90;;;25.00;99.90;;;;;;4996869;28;20226;-82
2021/06/15 11:11:49;;;;;;;7.57;2.60;;;24.80;99.90;;;;;;4997354;28;20223;-82
2021/06/15 11:14:22;;;;;;;5.73;2.50;;;24.70;1.00;;;;;;4993757;28;20201;-83
2021/06/15 11:16:55;;;;;;;6.33;2.57;;;24.80;99.90;;;;;;4998097;28;20257;-82
2021/06/15 11:19:20;;;;;;;4.17;2.20;;;25.00;99.90;;;;;;4995137;28;20193;-82
2021/06/15 11:22:04;;;;;;;5.47;2.30;;;25.00;54.70;;;;;;4997312;28;20212;-82
2021/06/15 11:24:29;;;;;;;5.97;2.50;;;25.00;99.90;;;;;;5002193;28;20165;-83
2021/06/15 11:26:58;;;;;;;3.63;2.23;;;25.00;99.90;;;;;;5001787;28;20254;-83
2021/06/15 11:29:41;;;;;;;7.70;3.07;;;24.70;25.10;;;;;;4978394;28;20232;-83
2021/06/15 11:32:21;;;;;;;7.80;2.40;;;24.70;16.20;;;;;;4978284;28;20170;-83
2021/06/15 11:34:54;;;;;;;5.70;2.20;;;24.70;99.90;;;;;;4976732;28;20558;-83
2021/06/15 11:37:21;;;;;;;4.50;2.53;;;24.70;99.90;;;;;;4975924;28;20196;-82
2021/06/15 11:39:47;;;;;;;5.80;2.50;;;24.80;1.00;;;;;;4975877;28;20243;-83
2021/06/15 11:42:18;;;;;;;3.13;2.10;;;24.70;1.00;;;;;;4978488;28;20197;-83
2021/06/15 11:45:00;;;;;;;7.73;2.40;;;24.70;1.00;;;;;;5004863;28;20180;-83
2021/06/15 11:47:45;;;;;;;8.83;3.10;;;24.80;1.00;;;;;;5019918;28;20207;-81
2021/06/15 11:50:22;;;;;;;5.77;2.57;;;24.50;1.00;;;;;;5017816;28;20180;-80
2021/06/15 11:53:09;;;;;;;5.80;3.07;;;24.70;99.90;;;;;;5026931;28;20166;-80
2021/06/15 11:55:48;;;;;;;5.80;2.67;;;24.80;99.90;;;;;;5008788;28;20181;-82
2021/06/15 11:58:31;;;;;;;5.53;2.40;;;25.00;1.00;;;;;;4996350;28;20248;-81
2021/06/15 12:01:06;;;;;;;4.00;2.37;;;25.00;1.00;;;;;;4998295;28;20185;-81
2021/06/15 12:03:48;;;;;;;9.17;2.90;;;24.90;1.00;;;;;;5000324;28;20179;-81
2021/06/15 12:06:19;;;;;;;5.10;2.33;;;24.90;1.00;;;;;;5004839;28;20189;-81
2021/06/15 12:08:49;;;;;;;4.67;3.13;;;25.00;1.00;;;;;;5027019;28;20173;-81
2021/06/15 12:11:18;;;;;;;7.13;2.97;;;25.00;99.90;;;;;;5013277;28;20196;-83
2021/06/15 12:13:48;;;;;;;6.03;2.77;;;25.20;99.90;;;;;;4998694;28;20167;-83
2021/06/15 12:16:30;;;;;;;7.67;2.40;;;25.20;1.00;;;;;;4997097;28;20201;-81
2021/06/15 12:18:59;;;;;;;4.93;2.70;;;25.20;99.90;;;;;;4995938;28;20720;-82
2021/06/15 12:21:31;;;;;;;5.80;2.93;;;25.10;99.90;;;;;;4992988;28;20179;-82
2021/06/15 12:24:04;;;;;;;5.37;2.90;;;25.10;1.00;;;;;;4980993;28;20619;-83
2021/06/15 12:26:40;;;;;;;7.23;3.43;;;25.00;99.90;;;;;;4989889;28;20212;-83
2021/06/15 12:29:16;;;;;;;4.43;2.80;;;25.10;1.00;;;;;;5014446;28;20224;-83
2021/06/15 12:31:46;;;;;;;4.37;2.97;;;25.10;99.90;;;;;;4998711;28;20241;-82
2021/06/15 12:34:13;;;;;;;3.97;2.83;;;25.10;55.90;;;;;;4998759;28;20567;-82
2021/06/15 12:36:46;;;;;;;5.23;3.07;;;25.10;99.90;;;;;;4999582;28;20699;-83
2021/06/15 12:39:27;;;;;;;6.43;3.00;;;25.20;99.90;;;;;;4994545;28;20214;-84
2021/06/15 12:41:58;;;;;;;4.53;2.70;;;25.20;31.00;;;;;;4990825;28;20233;-83
2021/06/15 12:44:29;;;;;;;5.03;2.80;;;25.20;99.90;;;;;;4986533;28;20181;-82
2021/06/15 12:47:05;;;;;;;8.63;3.00;;;25.10;99.90;;;;;;4987091;28;20177;-83
2021/06/15 12:49:32;;;;;;;6.30;2.50;;;25.30;1.00;;;;;;5008052;28;20184;-82
2021/06/15 12:52:06;;;;;;;7.13;3.07;;;25.10;1.00;;;;;;4994396;28;20170;-81
2021/06/15 12:54:36;;;;;;;6.13;2.90;;;25.00;99.90;;;;;;4997752;28;20185;-82
2021/06/15 12:57:08;;;;;;;8.70;3.23;;;25.10;99.90;;;;;;4984703;28;20190;-82
2021/06/15 12:59:36;;;;;;;4.07;2.50;;;25.30;99.90;;;;;;4985918;28;20364;-84
2021/06/15 13:02:21;;;;;;;4.60;2.90;;;25.70;99.90;;;;;;4990231;28;20166;-82